createdAt,value
2023-04-02T00:00:27.807Z,985.41
2023-04-02T00:01:27.809Z,985.43
2023-04-02T00:02:27.929Z,985.56
2023-04-02T00:03:27.864Z,985.55
2023-04-02T00:04:27.774Z,985.51
2023-04-02T00:05:27.754Z,985.53
2023-04-02T00:06:27.748Z,985.51
2023-04-02T00:07:27.729Z,985.59
2023-04-02T00:08:27.727Z,985.55
2023-04-02T00:09:27.750Z,985.57
2023-04-02T00:10:27.714Z,985.58
2023-04-02T00:11:27.698Z,985.64
2023-04-02T00:12:27.700Z,985.64
2023-04-02T00:13:27.673Z,985.86
2023-04-02T00:14:27.680Z,985.72
2023-04-02T00:15:27.653Z,985.79
2023-04-02T00:16:27.657Z,985.78
2023-04-02T00:17:27.639Z,985.77
2023-04-02T00:18:27.680Z,985.81
2023-04-02T00:19:27.632Z,985.80
2023-04-02T00:20:27.610Z,985.81
2023-04-02T00:21:27.596Z,985.88
2023-04-02T00:22:27.584Z,985.83
2023-04-02T00:23:27.570Z,985.84
2023-04-02T00:24:27.580Z,985.86
2023-04-02T00:25:27.557Z,985.92
2023-04-02T00:26:27.540Z,985.93
2023-04-02T00:27:27.534Z,985.94
2023-04-02T00:28:27.535Z,986.02
2023-04-02T00:29:27.551Z,986.01
2023-04-02T00:30:27.531Z,985.96
2023-04-02T00:31:27.529Z,985.96
2023-04-02T00:32:27.553Z,986.08
2023-04-02T00:33:27.489Z,986.00
2023-04-02T00:34:27.485Z,986.08
2023-04-02T00:35:27.478Z,986.13
2023-04-02T00:36:27.441Z,986.14
2023-04-02T00:37:27.445Z,986.10
2023-04-02T00:38:27.418Z,986.13
2023-04-02T00:39:27.430Z,986.15
2023-04-02T00:40:27.422Z,986.26
2023-04-02T00:41:27.403Z,986.15
2023-04-02T00:42:27.378Z,986.16
2023-04-02T00:43:27.363Z,986.23
2023-04-02T00:44:27.384Z,986.22
2023-04-02T00:45:27.340Z,986.24
2023-04-02T00:46:27.496Z,986.23
2023-04-02T00:47:27.365Z,986.25
2023-04-02T00:48:27.309Z,986.35
2023-04-02T00:49:27.320Z,986.27
2023-04-02T00:50:27.306Z,986.26
2023-04-02T00:51:27.278Z,986.29
2023-04-02T00:52:27.274Z,986.37
2023-04-02T00:53:27.250Z,986.38
2023-04-02T00:54:27.258Z,986.37
2023-04-02T00:55:27.244Z,986.35
2023-04-02T00:56:27.219Z,986.39
2023-04-02T00:57:27.237Z,986.41
2023-04-02T00:58:27.202Z,986.55
2023-04-02T00:59:27.214Z,986.49
2023-04-02T01:00:27.168Z,986.51
2023-04-02T01:01:27.236Z,986.56
2023-04-02T01:02:27.219Z,986.50
2023-04-02T01:03:27.208Z,986.55
2023-04-02T01:04:27.140Z,986.51
2023-04-02T01:05:27.124Z,986.64
2023-04-02T01:06:27.105Z,986.60
2023-04-02T01:07:27.085Z,986.57
2023-04-02T01:08:27.082Z,986.64
2023-04-02T01:09:27.102Z,986.64
2023-04-02T01:10:27.071Z,986.75
2023-04-02T01:11:27.076Z,986.71
2023-04-02T01:12:27.037Z,986.68
2023-04-02T01:13:27.021Z,986.80
2023-04-02T01:14:27.026Z,986.74
2023-04-02T01:15:26.990Z,986.74
2023-04-02T01:16:27.091Z,986.77
2023-04-02T01:17:27.021Z,986.76
2023-04-02T01:18:26.976Z,986.79
2023-04-02T01:19:26.987Z,986.85
2023-04-02T01:20:26.950Z,986.79
2023-04-02T01:21:26.938Z,986.85
2023-04-02T01:22:26.916Z,986.86
2023-04-02T01:23:26.904Z,986.96
2023-04-02T01:24:26.961Z,986.84
2023-04-02T01:25:26.890Z,986.90
2023-04-02T01:26:26.895Z,986.91
2023-04-02T01:27:26.869Z,986.99
2023-04-02T01:28:26.856Z,987.03
2023-04-02T01:29:26.854Z,987.00
2023-04-02T01:30:26.836Z,987.12
2023-04-02T01:31:26.893Z,987.03
2023-04-02T01:32:26.817Z,987.05
2023-04-02T01:33:26.806Z,987.07
2023-04-02T01:34:26.920Z,987.04
2023-04-02T01:35:26.769Z,987.17
2023-04-02T01:36:26.778Z,987.11
2023-04-02T01:37:26.742Z,987.17
2023-04-02T01:38:27.752Z,987.25
2023-04-02T01:39:26.756Z,987.13
2023-04-02T01:40:26.717Z,987.21
2023-04-02T01:41:26.706Z,987.21
2023-04-02T01:42:26.709Z,987.25
2023-04-02T01:43:26.688Z,987.26
2023-04-02T01:44:26.675Z,987.30
2023-04-02T01:45:26.681Z,987.29
2023-04-02T01:46:26.740Z,987.45
2023-04-02T01:47:26.659Z,987.36
2023-04-02T01:48:26.634Z,987.56
2023-04-02T01:49:26.606Z,987.33
2023-04-02T01:50:26.628Z,987.44
2023-04-02T01:51:26.585Z,987.40
2023-04-02T01:52:26.570Z,987.43
2023-04-02T01:53:26.558Z,987.53
2023-04-02T01:54:26.553Z,987.55
2023-04-02T01:55:26.549Z,987.60
2023-04-02T01:56:26.518Z,987.58
2023-04-02T01:57:26.535Z,987.64
2023-04-02T01:58:26.532Z,987.64
2023-04-02T01:59:26.534Z,987.68
2023-04-02T02:00:26.565Z,987.69
2023-04-02T02:01:26.498Z,987.65
2023-04-02T02:02:26.546Z,987.76
2023-04-02T02:03:26.472Z,987.70
2023-04-02T02:04:26.431Z,987.78
2023-04-02T02:05:26.448Z,987.73
2023-04-02T02:06:26.419Z,987.81
2023-04-02T02:07:26.416Z,987.73
2023-04-02T02:08:26.391Z,987.78
2023-04-02T02:09:26.380Z,987.86
2023-04-02T02:10:26.400Z,987.83
2023-04-02T02:11:26.362Z,987.83
2023-04-02T02:12:26.348Z,987.87
2023-04-02T02:13:26.334Z,987.98
2023-04-02T02:14:26.334Z,987.89
2023-04-02T02:15:26.322Z,987.95
2023-04-02T02:16:26.375Z,987.91
2023-04-02T02:17:26.322Z,987.96
2023-04-02T02:18:26.317Z,988.02
2023-04-02T02:19:26.276Z,987.95
2023-04-02T02:20:26.320Z,987.97
2023-04-02T02:21:26.262Z,987.99
2023-04-02T02:22:26.244Z,988.02
2023-04-02T02:23:26.250Z,988.05
2023-04-02T02:24:26.218Z,988.07
2023-04-02T02:25:26.200Z,988.09
2023-04-02T02:26:26.197Z,988.09
2023-04-02T02:27:26.184Z,988.14
2023-04-02T02:28:26.188Z,988.16
2023-04-02T02:29:26.161Z,988.17
2023-04-02T02:30:26.147Z,988.22
2023-04-02T02:31:26.167Z,988.27
2023-04-02T02:32:26.170Z,988.24
2023-04-02T02:33:26.170Z,988.40
2023-04-02T02:34:26.106Z,988.36
2023-04-02T02:35:26.117Z,988.30
2023-04-02T02:36:26.158Z,988.35
2023-04-02T02:37:26.090Z,988.49
2023-04-02T02:38:26.079Z,988.48
2023-04-02T02:39:26.049Z,988.48
2023-04-02T02:40:26.070Z,988.43
2023-04-02T02:41:26.035Z,988.52
2023-04-02T02:42:26.020Z,988.53
2023-04-02T02:43:26.016Z,988.50
2023-04-02T02:44:25.991Z,988.57
2023-04-02T02:45:26.013Z,988.62
2023-04-02T02:46:26.139Z,988.52
2023-04-02T02:47:26.048Z,988.56
2023-04-02T02:48:26.005Z,988.64
2023-04-02T02:49:26.042Z,988.61
2023-04-02T02:50:25.916Z,988.62
2023-04-02T02:51:26.001Z,988.60
2023-04-02T02:52:25.902Z,988.63
2023-04-02T02:53:25.890Z,988.70
2023-04-02T02:54:25.908Z,988.70
2023-04-02T02:55:25.904Z,988.79
2023-04-02T02:56:25.859Z,988.82
2023-04-02T02:57:25.968Z,988.82
2023-04-02T02:58:25.828Z,988.93
2023-04-02T02:59:25.822Z,988.88
2023-04-02T03:00:25.850Z,988.89
2023-04-02T03:01:25.829Z,988.88
2023-04-02T03:02:25.861Z,988.93
2023-04-02T03:03:26.947Z,988.85
2023-04-02T03:04:25.811Z,988.91
2023-04-02T03:05:25.765Z,989.00
2023-04-02T03:06:25.747Z,989.04
2023-04-02T03:07:25.737Z,989.01
2023-04-02T03:08:25.732Z,989.02
2023-04-02T03:09:25.709Z,989.06
2023-04-02T03:10:25.730Z,989.11
2023-04-02T03:11:25.682Z,989.07
2023-04-02T03:12:25.672Z,989.14
2023-04-02T03:13:25.675Z,989.13
2023-04-02T03:14:25.713Z,989.12
2023-04-02T03:15:25.666Z,989.15
2023-04-02T03:16:25.679Z,989.18
2023-04-02T03:17:25.656Z,989.20
2023-04-02T03:18:25.609Z,989.21
2023-04-02T03:19:25.599Z,989.27
2023-04-02T03:20:25.615Z,989.24
2023-04-02T03:21:25.600Z,989.21
2023-04-02T03:22:25.569Z,989.29
2023-04-02T03:23:25.568Z,989.33
2023-04-02T03:24:25.558Z,989.35
2023-04-02T03:25:25.565Z,989.30
2023-04-02T03:26:25.544Z,989.44
2023-04-02T03:27:25.535Z,989.44
2023-04-02T03:28:25.523Z,989.40
2023-04-02T03:29:25.531Z,989.50
2023-04-02T03:30:25.493Z,989.46
2023-04-02T03:31:25.553Z,989.48
2023-04-02T03:32:25.564Z,989.47
2023-04-02T03:33:25.478Z,989.50
2023-04-02T03:34:25.475Z,989.56
2023-04-02T03:35:25.466Z,989.55
2023-04-02T03:36:25.431Z,989.63
2023-04-02T03:37:25.430Z,989.56
2023-04-02T03:38:25.409Z,989.57
2023-04-02T03:39:25.407Z,989.63
2023-04-02T03:40:25.415Z,989.64
2023-04-02T03:41:25.389Z,989.73
2023-04-02T03:42:25.376Z,989.69
2023-04-02T03:43:25.356Z,989.79
2023-04-02T03:44:25.352Z,989.77
2023-04-02T03:45:25.363Z,989.81
2023-04-02T03:46:25.404Z,989.79
2023-04-02T03:47:25.318Z,989.83
2023-04-02T03:48:25.301Z,989.83
2023-04-02T03:49:25.293Z,989.85
2023-04-02T03:50:25.313Z,989.84
2023-04-02T03:51:25.266Z,989.90
2023-04-02T03:52:25.258Z,989.90
2023-04-02T03:53:25.245Z,989.90
2023-04-02T03:54:25.240Z,989.88
2023-04-02T03:55:25.238Z,989.92
2023-04-02T03:56:25.214Z,989.93
2023-04-02T03:57:25.221Z,989.93
2023-04-02T03:58:25.191Z,989.97
2023-04-02T03:59:25.197Z,989.95
2023-04-02T04:00:25.184Z,989.99
2023-04-02T04:01:25.154Z,990.01
2023-04-02T04:02:25.175Z,990.01
2023-04-02T04:03:25.133Z,990.04
2023-04-02T04:04:25.195Z,990.09
2023-04-02T04:05:25.128Z,990.06
2023-04-02T04:06:25.098Z,990.14
2023-04-02T04:07:25.098Z,990.17
2023-04-02T04:08:25.080Z,990.15
2023-04-02T04:09:25.073Z,990.20
2023-04-02T04:10:25.079Z,990.23
2023-04-02T04:11:25.107Z,990.25
2023-04-02T04:12:26.033Z,990.19
2023-04-02T04:13:25.026Z,990.29
2023-04-02T04:14:25.011Z,990.30
2023-04-02T04:15:25.064Z,990.39
2023-04-02T04:16:25.022Z,990.36
2023-04-02T04:17:25.054Z,990.34
2023-04-02T04:18:24.959Z,990.33
2023-04-02T04:19:24.963Z,990.48
2023-04-02T04:20:24.956Z,990.45
2023-04-02T04:21:24.933Z,990.49
2023-04-02T04:22:24.931Z,990.52
2023-04-02T04:23:24.913Z,990.46
2023-04-02T04:24:24.909Z,990.55
2023-04-02T04:25:24.927Z,990.58
2023-04-02T04:26:24.927Z,990.60
2023-04-02T04:27:24.878Z,990.61
2023-04-02T04:28:24.857Z,990.59
2023-04-02T04:29:24.843Z,990.63
2023-04-02T04:30:24.857Z,990.59
2023-04-02T04:31:25.947Z,990.66
2023-04-02T04:32:25.818Z,990.73
2023-04-02T04:33:24.794Z,990.75
2023-04-02T04:34:24.797Z,990.78
2023-04-02T04:35:25.874Z,990.74
2023-04-02T04:36:24.777Z,990.86
2023-04-02T04:37:24.751Z,990.84
2023-04-02T04:38:24.742Z,990.81
2023-04-02T04:39:24.743Z,990.80
2023-04-02T04:40:24.747Z,990.95
2023-04-02T04:41:24.706Z,990.96
2023-04-02T04:42:24.715Z,990.97
2023-04-02T04:43:24.691Z,991.02
2023-04-02T04:44:24.698Z,990.99
2023-04-02T04:45:24.738Z,991.06
2023-04-02T04:46:24.698Z,991.08
2023-04-02T04:47:24.668Z,991.05
2023-04-02T04:48:24.637Z,991.14
2023-04-02T04:49:24.645Z,991.20
2023-04-02T04:50:24.648Z,991.16
2023-04-02T04:51:24.617Z,991.19
2023-04-02T04:52:24.608Z,991.27
2023-04-02T04:53:24.595Z,991.26
2023-04-02T04:54:24.587Z,991.29
2023-04-02T04:55:24.604Z,991.24
2023-04-02T04:56:24.566Z,991.23
2023-04-02T04:57:24.674Z,991.34
2023-04-02T04:58:24.550Z,991.35
2023-04-02T04:59:25.562Z,991.36
2023-04-02T05:00:24.543Z,991.39
2023-04-02T05:01:24.550Z,991.42
2023-04-02T05:02:24.600Z,991.48
2023-04-02T05:03:24.503Z,991.47
2023-04-02T05:04:24.519Z,991.53
2023-04-02T05:05:24.523Z,991.51
2023-04-02T05:06:24.471Z,991.49
2023-04-02T05:07:24.466Z,991.41
2023-04-02T05:08:24.449Z,991.52
2023-04-02T05:09:24.439Z,991.46
2023-04-02T05:10:24.457Z,991.47
2023-04-02T05:11:24.423Z,991.53
2023-04-02T05:12:25.405Z,991.57
2023-04-02T05:13:24.397Z,991.53
2023-04-02T05:14:24.395Z,991.53
2023-04-02T05:15:24.399Z,991.56
2023-04-02T05:16:24.432Z,991.71
2023-04-02T05:17:24.415Z,991.66
2023-04-02T05:18:24.364Z,991.70
2023-04-02T05:19:24.336Z,991.74
2023-04-02T05:20:24.327Z,991.71
2023-04-02T05:21:24.357Z,991.74
2023-04-02T05:22:24.315Z,991.75
2023-04-02T05:23:24.325Z,991.86
2023-04-02T05:24:24.290Z,991.87
2023-04-02T05:25:24.281Z,991.87
2023-04-02T05:26:24.299Z,991.90
2023-04-02T05:27:24.256Z,991.92
2023-04-02T05:28:24.248Z,991.98
2023-04-02T05:29:24.239Z,992.03
2023-04-02T05:30:24.239Z,991.99
2023-04-02T05:31:24.263Z,992.03
2023-04-02T05:32:24.213Z,992.08
2023-04-02T05:33:24.189Z,992.11
2023-04-02T05:34:24.233Z,992.06
2023-04-02T05:35:24.176Z,992.14
2023-04-02T05:36:24.200Z,992.11
2023-04-02T05:37:24.153Z,992.13
2023-04-02T05:38:24.148Z,992.18
2023-04-02T05:39:24.139Z,992.20
2023-04-02T05:40:24.132Z,992.16
2023-04-02T05:41:24.135Z,992.20
2023-04-02T05:42:24.107Z,992.24
2023-04-02T05:43:24.092Z,992.24
2023-04-02T05:44:24.088Z,992.30
2023-04-02T05:45:24.077Z,992.33
2023-04-02T05:46:24.115Z,992.41
2023-04-02T05:47:24.086Z,992.37
2023-04-02T05:48:24.096Z,992.49
2023-04-02T05:49:24.033Z,992.49
2023-04-02T05:50:24.021Z,992.52
2023-04-02T05:51:24.047Z,992.45
2023-04-02T05:52:24.020Z,992.56
2023-04-02T05:53:23.985Z,992.52
2023-04-02T05:54:23.988Z,992.45
2023-04-02T05:55:23.985Z,992.61
2023-04-02T05:56:23.958Z,992.57
2023-04-02T05:57:39.412Z,992.59
2023-04-02T05:59:24.952Z,992.69
2023-04-02T06:00:23.930Z,992.72
2023-04-02T06:01:23.917Z,992.72
2023-04-02T06:02:23.961Z,992.67
2023-04-02T06:03:23.937Z,992.77
2023-04-02T06:04:23.894Z,992.75
2023-04-02T06:05:23.872Z,992.82
2023-04-02T06:06:23.877Z,992.82
2023-04-02T06:07:23.892Z,992.81
2023-04-02T06:08:23.854Z,992.86
2023-04-02T06:09:23.833Z,992.87
2023-04-02T06:11:42.797Z,992.95
2023-04-02T06:12:42.852Z,993.03
2023-04-02T06:13:42.803Z,992.95
2023-04-02T06:14:42.793Z,992.97
2023-04-02T06:15:42.773Z,993.03
2023-04-02T06:16:42.938Z,993.06
2023-04-02T06:17:42.799Z,993.14
2023-04-02T06:18:42.742Z,993.20
2023-04-02T06:19:42.742Z,993.09
2023-04-02T06:20:42.724Z,993.22
2023-04-02T06:21:42.731Z,993.24
2023-04-02T06:22:42.699Z,993.15
2023-04-02T06:23:42.693Z,993.20
2023-04-02T06:24:42.685Z,993.23
2023-04-02T06:25:42.678Z,993.32
2023-04-02T06:26:42.684Z,993.27
2023-04-02T06:27:42.659Z,993.34
2023-04-02T06:28:42.647Z,993.40
2023-04-02T06:29:42.644Z,993.35
2023-04-02T06:30:42.647Z,993.44
2023-04-02T06:31:42.672Z,993.39
2023-04-02T06:32:42.642Z,993.52
2023-04-02T06:33:43.730Z,993.49
2023-04-02T06:34:43.718Z,993.44
2023-04-02T06:35:43.726Z,993.55
2023-04-02T06:36:43.721Z,993.57
2023-04-02T06:37:43.703Z,993.60
2023-04-02T06:38:43.668Z,993.58
2023-04-02T06:39:43.668Z,993.64
2023-04-02T06:40:43.656Z,993.70
2023-04-02T06:41:43.649Z,993.82
2023-04-02T06:42:43.689Z,993.68
2023-04-02T06:43:43.618Z,993.69
2023-04-02T06:44:43.613Z,993.67
2023-04-02T06:45:43.635Z,993.79
2023-04-02T06:46:43.625Z,993.76
2023-04-02T06:47:43.609Z,993.65
2023-04-02T06:48:43.577Z,993.68
2023-04-02T06:49:43.568Z,993.73
2023-04-02T06:50:43.565Z,993.71
2023-04-02T06:51:43.581Z,993.74
2023-04-02T06:52:43.542Z,993.83
2023-04-02T06:53:43.533Z,993.81
2023-04-02T06:54:43.572Z,993.81
2023-04-02T06:55:43.504Z,993.90
2023-04-02T06:56:44.543Z,993.94
2023-04-02T06:57:43.510Z,993.92
2023-04-02T06:58:43.493Z,993.93
2023-04-02T06:59:43.468Z,993.96
2023-04-02T07:00:43.469Z,994.06
2023-04-02T07:01:43.520Z,994.06
2023-04-02T07:02:43.452Z,994.09
2023-04-02T07:03:43.452Z,994.08
2023-04-02T07:04:43.459Z,994.07
2023-04-02T07:05:43.409Z,994.10
2023-04-02T07:06:43.428Z,994.13
2023-04-02T07:07:43.399Z,994.15
2023-04-02T07:08:43.378Z,994.21
2023-04-02T07:09:43.381Z,994.22
2023-04-02T07:10:43.357Z,994.19
2023-04-02T07:11:43.372Z,994.21
2023-04-02T07:12:43.347Z,994.21
2023-04-02T07:13:43.336Z,994.26
2023-04-02T07:14:43.318Z,994.31
2023-04-02T07:15:43.370Z,994.30
2023-04-02T07:16:43.335Z,994.37
2023-04-02T07:17:43.348Z,994.34
2023-04-02T07:18:43.289Z,994.45
2023-04-02T07:19:43.277Z,994.43
2023-04-02T07:20:43.300Z,994.49
2023-04-02T07:21:43.298Z,994.50
2023-04-02T07:22:43.255Z,994.54
2023-04-02T07:23:43.234Z,994.61
2023-04-02T07:24:43.232Z,994.54
2023-04-02T07:25:43.222Z,994.57
2023-04-02T07:26:43.226Z,994.56
2023-04-02T07:27:43.196Z,994.61
2023-04-02T07:28:43.189Z,994.57
2023-04-02T07:29:43.193Z,994.53
2023-04-02T07:30:43.168Z,994.57
2023-04-02T07:31:43.219Z,994.69
2023-04-02T07:32:43.150Z,994.57
2023-04-02T07:33:43.124Z,994.69
2023-04-02T07:34:43.121Z,994.73
2023-04-02T07:35:43.106Z,994.63
2023-04-02T07:36:43.132Z,994.68
2023-04-02T07:37:43.084Z,994.72
2023-04-02T07:38:43.075Z,994.74
2023-04-02T07:39:43.068Z,994.82
2023-04-02T07:40:43.068Z,994.78
2023-04-02T07:41:43.069Z,994.82
2023-04-02T07:42:43.035Z,994.82
2023-04-02T07:43:44.019Z,994.91
2023-04-02T07:44:43.019Z,994.93
2023-04-02T07:45:43.011Z,994.93
2023-04-02T07:46:43.020Z,994.95
2023-04-02T07:47:43.045Z,994.96
2023-04-02T07:48:42.994Z,994.99
2023-04-02T07:49:42.979Z,995.04
2023-04-02T07:50:42.942Z,995.06
2023-04-02T07:51:42.964Z,995.05
2023-04-02T07:52:42.929Z,995.17
2023-04-02T07:53:42.935Z,995.10
2023-04-02T07:54:42.907Z,995.08
2023-04-02T07:55:42.902Z,995.13
2023-04-02T07:56:42.904Z,995.11
2023-04-02T07:57:45.662Z,995.22
2023-04-02T07:58:42.869Z,995.26
2023-04-02T07:59:42.853Z,995.29
2023-04-02T08:00:43.840Z,995.20
2023-04-02T08:01:43.058Z,995.26
2023-04-02T08:02:42.848Z,995.33
2023-04-02T08:03:42.957Z,995.28
2023-04-02T08:04:42.794Z,995.38
2023-04-02T08:05:42.776Z,995.40
2023-04-02T08:06:43.788Z,995.46
2023-04-02T08:07:42.776Z,995.44
2023-04-02T08:08:42.753Z,995.40
2023-04-02T08:09:42.763Z,995.55
2023-04-02T08:10:42.727Z,995.53
2023-04-02T08:11:42.712Z,995.55
2023-04-02T08:12:42.702Z,995.54
2023-04-02T08:13:42.700Z,995.55
2023-04-02T08:14:42.713Z,995.61
2023-04-02T08:15:42.715Z,995.65
2023-04-02T08:16:42.704Z,995.74
2023-04-02T08:17:42.675Z,995.63
2023-04-02T08:18:42.646Z,995.70
2023-04-02T08:19:54.166Z,995.64
2023-04-02T08:20:44.635Z,995.80
2023-04-02T08:21:42.618Z,995.68
2023-04-02T08:22:42.606Z,995.80
2023-04-02T08:23:42.587Z,995.66
2023-04-02T08:24:42.619Z,995.80
2023-04-02T08:25:42.587Z,995.98
2023-04-02T08:26:43.965Z,995.84
2023-04-02T08:27:42.571Z,995.74
2023-04-02T08:28:42.534Z,995.89
2023-04-02T08:29:42.521Z,995.87
2023-04-02T08:30:42.530Z,995.84
2023-04-02T08:31:42.524Z,995.79
2023-04-02T08:32:42.574Z,995.87
2023-04-02T08:33:42.480Z,995.92
2023-04-02T08:34:42.472Z,995.88
2023-04-02T08:35:42.491Z,996.02
2023-04-02T08:36:42.487Z,995.96
2023-04-02T08:37:42.444Z,995.94
2023-04-02T08:38:42.431Z,995.96
2023-04-02T08:39:42.414Z,996.00
2023-04-02T08:40:42.404Z,996.02
2023-04-02T08:41:42.435Z,996.00
2023-04-02T08:42:42.404Z,995.94
2023-04-02T08:43:42.371Z,996.01
2023-04-02T08:44:42.364Z,996.01
2023-04-02T08:45:42.552Z,996.02
2023-04-02T08:46:42.361Z,996.04
2023-04-02T08:47:42.377Z,996.05
2023-04-02T08:48:42.777Z,996.08
2023-04-02T08:49:43.310Z,996.14
2023-04-02T08:50:43.294Z,996.12
2023-04-02T08:51:42.283Z,996.11
2023-04-02T08:52:42.283Z,996.13
2023-04-02T08:53:42.258Z,996.20
2023-04-02T08:54:42.233Z,996.10
2023-04-02T08:55:42.230Z,996.21
2023-04-02T08:56:42.228Z,996.19
2023-04-02T08:57:42.231Z,996.15
2023-04-02T08:58:42.191Z,996.19
2023-04-02T08:59:42.193Z,996.22
2023-04-02T09:00:42.165Z,996.28
2023-04-02T09:01:42.251Z,996.23
2023-04-02T09:02:42.232Z,996.39
2023-04-02T09:03:42.143Z,996.33
2023-04-02T09:04:42.166Z,996.34
2023-04-02T09:05:42.112Z,996.35
2023-04-02T09:06:42.102Z,996.38
2023-04-02T09:07:42.125Z,996.44
2023-04-02T09:08:42.074Z,996.42
2023-04-02T09:09:42.068Z,996.48
2023-04-02T09:10:42.086Z,996.45
2023-04-02T09:11:42.039Z,996.49
2023-04-02T09:12:42.362Z,996.49
2023-04-02T09:13:43.035Z,996.53
2023-04-02T09:14:42.013Z,996.50
2023-04-02T09:15:42.045Z,996.70
2023-04-02T09:16:41.973Z,996.57
2023-04-02T09:17:53.229Z,996.65
2023-04-02T09:18:43.991Z,996.60
2023-04-02T09:19:41.962Z,996.77
2023-04-02T09:20:41.938Z,996.73
2023-04-02T09:21:41.948Z,996.64
2023-04-02T09:22:41.940Z,996.71
2023-04-02T09:23:41.908Z,996.69
2023-04-02T09:24:41.898Z,996.75
2023-04-02T09:25:42.205Z,996.75
2023-04-02T09:26:41.866Z,996.80
2023-04-02T09:27:41.881Z,996.73
2023-04-02T09:28:41.849Z,996.80
2023-04-02T09:29:41.868Z,996.87
2023-04-02T09:30:41.838Z,996.86
2023-04-02T09:31:41.902Z,996.88
2023-04-02T09:32:41.843Z,996.93
2023-04-02T09:33:41.790Z,996.92
2023-04-02T09:34:41.783Z,996.92
2023-04-02T09:35:41.918Z,996.96
2023-04-02T09:36:42.754Z,997.04
2023-04-02T09:37:41.771Z,997.05
2023-04-02T09:38:41.748Z,997.05
2023-04-02T09:39:41.727Z,997.03
2023-04-02T09:40:41.714Z,997.04
2023-04-02T09:41:41.706Z,997.06
2023-04-02T09:42:41.774Z,997.15
2023-04-02T09:43:41.674Z,997.07
2023-04-02T09:44:41.664Z,997.07
2023-04-02T09:45:41.651Z,997.13
2023-04-02T09:46:41.689Z,997.17
2023-04-02T09:47:42.305Z,997.18
2023-04-02T09:48:42.615Z,997.21
2023-04-02T09:49:41.609Z,997.16
2023-04-02T09:50:41.610Z,997.21
2023-04-02T09:51:41.588Z,997.28
2023-04-02T09:52:41.601Z,997.25
2023-04-02T09:53:42.599Z,997.34
2023-04-02T09:54:41.572Z,997.33
2023-04-02T09:55:41.561Z,997.31
2023-04-02T09:56:41.547Z,997.36
2023-04-02T09:57:41.541Z,997.35
2023-04-02T09:58:41.502Z,997.39
2023-04-02T09:59:41.492Z,997.42
2023-04-02T10:00:42.143Z,997.43
2023-04-02T10:01:42.606Z,997.41
2023-04-02T10:02:41.585Z,997.43
2023-04-02T10:03:41.443Z,997.40
2023-04-02T10:04:41.578Z,997.44
2023-04-02T10:05:41.770Z,997.46
2023-04-02T10:06:41.412Z,997.45
2023-04-02T10:07:41.470Z,997.43
2023-04-02T10:08:41.386Z,997.42
2023-04-02T10:09:41.377Z,997.43
2023-04-02T10:10:42.377Z,997.50
2023-04-02T10:11:46.555Z,997.53
2023-04-02T10:12:43.391Z,997.58
2023-04-02T10:13:41.354Z,997.60
2023-04-02T10:14:41.333Z,997.60
2023-04-02T10:15:41.320Z,997.70
2023-04-02T10:16:41.328Z,997.64
2023-04-02T10:17:41.339Z,997.73
2023-04-02T10:18:41.281Z,997.77
2023-04-02T10:19:41.275Z,997.81
2023-04-02T10:20:50.565Z,997.78
2023-04-02T10:21:43.257Z,997.68
2023-04-02T10:22:41.262Z,997.68
2023-04-02T10:23:41.217Z,997.73
2023-04-02T10:24:41.238Z,997.79
2023-04-02T10:25:41.203Z,997.81
2023-04-02T10:26:41.198Z,997.81
2023-04-02T10:27:41.201Z,997.82
2023-04-02T10:28:41.171Z,997.80
2023-04-02T10:29:41.151Z,997.84
2023-04-02T10:30:41.160Z,997.82
2023-04-02T10:31:41.146Z,997.75
2023-04-02T10:32:41.153Z,997.84
2023-04-02T10:33:41.125Z,997.79
2023-04-02T10:34:42.825Z,997.83
2023-04-02T10:35:41.120Z,997.90
2023-04-02T10:36:41.076Z,997.88
2023-04-02T10:37:41.087Z,997.86
2023-04-02T10:38:41.054Z,997.92
2023-04-02T10:39:41.041Z,997.89
2023-04-02T10:40:41.043Z,997.91
2023-04-02T10:41:41.072Z,997.87
2023-04-02T10:42:41.057Z,997.87
2023-04-02T10:43:40.992Z,997.95
2023-04-02T10:44:41.990Z,997.99
2023-04-02T10:45:41.103Z,997.95
2023-04-02T10:46:41.036Z,998.01
2023-04-02T10:47:41.019Z,997.98
2023-04-02T10:48:40.948Z,997.98
2023-04-02T10:49:41.035Z,997.99
2023-04-02T10:50:40.923Z,998.04
2023-04-02T10:51:40.920Z,998.01
2023-04-02T10:52:40.918Z,998.04
2023-04-02T10:53:40.890Z,998.02
2023-04-02T10:54:40.933Z,997.95
2023-04-02T10:55:40.904Z,998.06
2023-04-02T10:56:50.750Z,998.04
2023-04-02T10:57:42.886Z,998.04
2023-04-02T10:58:40.841Z,998.01
2023-04-02T10:59:40.833Z,998.12
2023-04-02T11:00:40.833Z,998.09
2023-04-02T11:01:40.862Z,998.15
2023-04-02T11:02:40.960Z,998.17
2023-04-02T11:03:40.979Z,998.16
2023-04-02T11:04:40.787Z,998.11
2023-04-02T11:05:40.776Z,998.17
2023-04-02T11:06:40.752Z,998.20
2023-04-02T11:07:40.763Z,998.13
2023-04-02T11:08:40.734Z,998.11
2023-04-02T11:09:40.718Z,998.15
2023-04-02T11:10:40.727Z,998.11
2023-04-02T11:11:40.693Z,998.25
2023-04-02T11:12:42.026Z,998.24
2023-04-02T11:13:41.672Z,998.22
2023-04-02T11:14:40.718Z,998.27
2023-04-02T11:15:40.662Z,998.38
2023-04-02T11:16:43.943Z,998.33
2023-04-02T11:17:41.692Z,998.39
2023-04-02T11:18:40.622Z,998.40
2023-04-02T11:19:40.694Z,998.42
2023-04-02T11:20:40.630Z,998.43
2023-04-02T11:21:51.423Z,998.47
2023-04-02T11:22:42.602Z,998.51
2023-04-02T11:23:40.558Z,998.55
2023-04-02T11:24:40.556Z,998.53
2023-04-02T11:25:40.544Z,998.53
2023-04-02T11:26:40.558Z,998.59
2023-04-02T11:27:40.527Z,998.61
2023-04-02T11:28:40.537Z,998.61
2023-04-02T11:29:40.497Z,998.62
2023-04-02T11:30:40.494Z,998.67
2023-04-02T11:31:40.498Z,998.68
2023-04-02T11:32:40.591Z,998.72
2023-04-02T11:33:43.399Z,998.70
2023-04-02T11:34:41.444Z,998.72
2023-04-02T11:35:40.623Z,998.67
2023-04-02T11:36:40.428Z,998.74
2023-04-02T11:37:40.414Z,998.84
2023-04-02T11:38:40.416Z,998.71
2023-04-02T11:39:40.387Z,998.73
2023-04-02T11:40:40.397Z,998.72
2023-04-02T11:41:40.359Z,998.68
2023-04-02T11:42:40.359Z,998.79
2023-04-02T11:43:40.372Z,998.81
2023-04-02T11:44:40.341Z,998.82
2023-04-02T11:45:51.838Z,998.81
2023-04-02T11:46:42.403Z,998.77
2023-04-02T11:47:40.359Z,998.82
2023-04-02T11:48:40.321Z,998.77
2023-04-02T11:49:40.344Z,998.81
2023-04-02T11:50:40.284Z,998.77
2023-04-02T11:51:40.288Z,998.79
2023-04-02T11:52:40.251Z,998.77
2023-04-02T11:53:40.266Z,998.82
2023-04-02T11:54:40.229Z,998.82
2023-04-02T11:55:40.222Z,998.86
2023-04-02T11:56:40.213Z,998.87
2023-04-02T11:57:40.237Z,998.90
2023-04-02T11:58:40.351Z,998.84
2023-04-02T11:59:40.176Z,998.85
2023-04-02T12:00:40.170Z,998.72
2023-04-02T12:01:40.203Z,998.84
2023-04-02T12:02:40.252Z,998.86
2023-04-02T12:03:40.174Z,998.91
2023-04-02T12:04:40.139Z,998.92
2023-04-02T12:05:40.215Z,999.01
2023-04-02T12:06:41.109Z,998.94
2023-04-02T12:07:40.093Z,998.93
2023-04-02T12:08:50.896Z,999.04
2023-04-02T12:09:42.074Z,999.03
2023-04-02T12:10:40.108Z,999.03
2023-04-02T12:11:40.075Z,999.05
2023-04-02T12:12:40.077Z,999.06
2023-04-02T12:13:40.082Z,999.17
2023-04-02T12:14:40.041Z,999.21
2023-04-02T12:15:40.014Z,999.15
2023-04-02T12:16:40.081Z,999.15
2023-04-02T12:17:40.058Z,999.22
2023-04-02T12:18:39.996Z,999.21
2023-04-02T12:19:39.976Z,999.24
2023-04-02T12:20:39.969Z,999.23
2023-04-02T12:21:39.959Z,999.20
2023-04-02T12:22:39.950Z,999.29
2023-04-02T12:23:39.950Z,999.26
2023-04-02T12:24:39.946Z,999.28
2023-04-02T12:25:40.960Z,999.27
2023-04-02T12:26:39.897Z,999.21
2023-04-02T12:27:39.898Z,999.25
2023-04-02T12:28:39.881Z,999.34
2023-04-02T12:29:39.898Z,999.35
2023-04-02T12:30:39.893Z,999.28